Time;durP1;ratioP1;P1;durP2;ratioP2;P2;SDS_P1;SDS_P2;PMS_P1;PMS_P2;Temp;Humidity;BMP_temperature;BMP_pressure;BME280_temperature;BME280_humidity;BME280_pressure;Samples;Min_cycle;Max_cycle;Signal;HPM_P1;HPM_P2
2023/12/07 00:00:06;;;;;;;22.90;11.23;;;1.30;99.90;;;;;;4988144;28;20281;-58
2023/12/07 00:02:32;;;;;;;22.53;12.53;;;1.40;99.90;;;;;;4985717;28;20435;-62
2023/12/07 00:04:59;;;;;;;21.90;11.00;;;1.30;99.90;;;;;;4982950;28;20496;-58
2023/12/07 00:07:24;;;;;;;22.73;12.00;;;1.30;99.90;;;;;;4986516;28;20478;-59
2023/12/07 00:09:50;;;;;;;23.07;12.63;;;1.30;99.90;;;;;;4982144;28;20195;-58
2023/12/07 00:12:15;;;;;;;20.67;11.57;;;1.30;99.90;;;;;;4986168;28;20725;-57
2023/12/07 00:14:41;;;;;;;23.97;13.50;;;1.30;99.90;;;;;;4986239;28;20195;-58
2023/12/07 00:17:07;;;;;;;22.03;12.20;;;1.30;99.90;;;;;;4989070;28;20261;-57
2023/12/07 00:19:32;;;;;;;18.07;11.63;;;1.30;99.90;;;;;;4987996;28;20434;-58
2023/12/07 00:21:58;;;;;;;25.87;14.10;;;1.30;99.90;;;;;;4984503;28;20192;-58
2023/12/07 00:24:23;;;;;;;22.83;11.90;;;1.30;99.90;;;;;;4988262;28;20216;-58
2023/12/07 00:26:49;;;;;;;21.83;11.67;;;1.30;99.90;;;;;;4984421;28;20212;-58
2023/12/07 00:29:15;;;;;;;21.07;11.33;;;1.30;99.90;;;;;;4985694;28;20181;-59
2023/12/07 00:31:41;;;;;;;22.40;12.60;;;1.30;99.90;;;;;;4988006;28;20213;-58
2023/12/07 00:34:06;;;;;;;17.77;11.90;;;1.40;99.90;;;;;;4992454;28;20212;-59
2023/12/07 00:36:32;;;;;;;26.20;14.30;;;1.30;99.90;;;;;;4981934;28;20858;-57
2023/12/07 00:38:58;;;;;;;28.17;13.43;;;1.30;99.90;;;;;;4985680;28;20188;-58
2023/12/07 00:41:23;;;;;;;22.53;12.57;;;1.30;99.90;;;;;;4982077;28;20255;-58
2023/12/07 00:43:49;;;;;;;24.33;11.77;;;1.30;99.90;;;;;;4987697;28;20204;-57
2023/12/07 00:46:15;;;;;;;18.40;11.03;;;1.30;99.90;;;;;;4985698;28;20177;-57
2023/12/07 00:48:40;;;;;;;20.00;12.57;;;1.30;99.90;;;;;;4985086;28;20188;-57
2023/12/07 00:51:06;;;;;;;22.10;11.00;;;1.30;99.90;;;;;;4986875;28;20275;-57
2023/12/07 00:53:32;;;;;;;20.03;11.17;;;1.30;99.90;;;;;;4986057;28;20204;-55
2023/12/07 00:55:57;;;;;;;20.77;11.67;;;1.30;99.90;;;;;;4984259;28;20177;-58
2023/12/07 00:58:23;;;;;;;20.57;12.07;;;1.30;99.90;;;;;;4981258;28;20180;-57
2023/12/07 01:00:49;;;;;;;20.70;10.93;;;1.30;99.90;;;;;;4985316;28;20183;-57
2023/12/07 01:03:14;;;;;;;21.90;11.90;;;1.30;99.90;;;;;;4982120;28;20215;-59
2023/12/07 01:05:40;;;;;;;22.13;11.77;;;1.20;99.90;;;;;;4986206;28;20673;-58
2023/12/07 01:08:06;;;;;;;21.73;11.10;;;1.20;99.90;;;;;;4991757;28;20275;-58
2023/12/07 01:10:32;;;;;;;15.73;9.23;;;1.20;99.90;;;;;;4985995;28;20242;-58
2023/12/07 01:12:57;;;;;;;17.40;10.67;;;1.20;99.90;;;;;;4984743;28;20219;-57
2023/12/07 01:15:23;;;;;;;19.27;10.90;;;1.20;99.90;;;;;;4988210;28;20427;-57
2023/12/07 01:17:49;;;;;;;20.10;10.90;;;1.20;99.90;;;;;;4987574;28;20184;-57
2023/12/07 01:20:14;;;;;;;25.30;10.57;;;1.20;99.90;;;;;;4983530;28;20266;-55
2023/12/07 01:22:45;;;;;;;19.00;11.00;;;1.20;99.90;;;;;;4981775;28;20193;-57
2023/12/07 01:25:11;;;;;;;22.00;11.40;;;1.20;99.90;;;;;;4987464;28;20537;-58
2023/12/07 01:27:37;;;;;;;18.83;10.53;;;1.20;99.90;;;;;;4983495;28;20449;-60
2023/12/07 01:30:03;;;;;;;17.13;10.27;;;1.20;99.90;;;;;;4985911;28;20430;-58
2023/12/07 01:32:29;;;;;;;16.77;10.50;;;1.20;99.90;;;;;;4985995;28;20217;-60
2023/12/07 01:34:55;;;;;;;17.43;10.33;;;1.20;99.90;;;;;;4985788;28;20512;-58
2023/12/07 01:37:20;;;;;;;16.73;10.27;;;1.20;99.90;;;;;;4983174;28;20435;-58
2023/12/07 01:39:46;;;;;;;20.47;11.20;;;1.20;99.90;;;;;;4987054;28;20181;-57
2023/12/07 01:42:12;;;;;;;18.60;10.10;;;1.10;99.90;;;;;;4990335;28;20616;-59
2023/12/07 01:44:38;;;;;;;20.07;10.00;;;1.10;99.90;;;;;;4991329;28;20225;-57
2023/12/07 01:47:05;;;;;;;18.23;11.00;;;1.10;99.90;;;;;;4989256;28;20193;-58
2023/12/07 01:49:32;;;;;;;19.37;11.73;;;1.00;99.90;;;;;;4985996;28;20467;-58
2023/12/07 01:51:58;;;;;;;21.80;11.23;;;1.10;99.90;;;;;;4989916;28;20478;-56
2023/12/07 01:54:23;;;;;;;19.30;11.27;;;1.10;99.90;;;;;;4988571;28;20901;-57
2023/12/07 01:56:51;;;;;;;23.73;11.00;;;1.00;99.90;;;;;;4985701;28;20434;-57
2023/12/07 01:59:17;;;;;;;19.97;11.00;;;1.00;99.90;;;;;;4988073;28;20189;-58
2023/12/07 02:01:43;;;;;;;16.53;10.33;;;1.00;99.90;;;;;;4989411;28;20423;-58
2023/12/07 02:04:10;;;;;;;17.60;9.83;;;1.00;99.90;;;;;;4989366;28;20219;-59
2023/12/07 02:06:35;;;;;;;19.47;10.47;;;1.00;99.90;;;;;;4985891;28;20434;-58
2023/12/07 02:09:02;;;;;;;23.10;10.83;;;0.90;99.90;;;;;;4985151;28;20602;-58
2023/12/07 02:11:27;;;;;;;17.83;9.67;;;0.90;99.90;;;;;;4988563;28;20205;-57
2023/12/07 02:13:55;;;;;;;18.73;11.53;;;0.90;99.90;;;;;;4987911;28;21009;-59
2023/12/07 02:16:29;;;;;;;19.63;10.40;;;0.90;99.90;;;;;;4995714;28;20597;-58
2023/12/07 02:19:31;;;;;;;21.80;11.63;;;0.90;99.90;;;;;;4989643;28;20448;-57
2023/12/07 02:22:02;;;;;;;15.07;9.23;;;0.80;99.90;;;;;;4983119;28;20427;-58
2023/12/07 02:24:33;;;;;;;22.53;11.27;;;0.80;99.90;;;;;;4979338;28;20545;-58
2023/12/07 02:26:59;;;;;;;22.97;11.27;;;0.80;99.90;;;;;;4987016;28;20436;-58
2023/12/07 02:29:24;;;;;;;26.10;12.23;;;0.90;99.90;;;;;;4985285;28;20936;-58
2023/12/07 02:31:50;;;;;;;20.57;11.00;;;0.80;99.90;;;;;;4989390;28;20210;-58
2023/12/07 02:34:16;;;;;;;22.33;12.47;;;0.80;99.90;;;;;;4985404;28;20630;-58
2023/12/07 02:36:44;;;;;;;24.60;12.40;;;0.80;99.90;;;;;;4984448;28;20180;-58
2023/12/07 02:39:12;;;;;;;25.37;12.57;;;0.90;99.90;;;;;;4980582;28;20435;-58
2023/12/07 02:41:39;;;;;;;31.10;15.47;;;0.90;99.90;;;;;;4986071;28;20958;-58
2023/12/07 02:44:05;;;;;;;26.90;13.53;;;0.90;99.90;;;;;;4986788;28;20456;-58
2023/12/07 02:46:31;;;;;;;23.47;13.33;;;0.90;99.90;;;;;;4987177;28;20428;-59
2023/12/07 02:48:58;;;;;;;25.40;13.13;;;0.90;99.90;;;;;;4986726;28;20432;-58
2023/12/07 02:51:23;;;;;;;30.03;15.17;;;0.90;99.90;;;;;;4981029;28;20504;-57
2023/12/07 02:53:49;;;;;;;28.87;14.53;;;0.90;99.90;;;;;;4985206;28;20825;-58
2023/12/07 02:56:15;;;;;;;29.53;14.37;;;0.90;99.90;;;;;;4984605;28;20188;-58
2023/12/07 02:58:40;;;;;;;31.57;13.53;;;0.90;99.90;;;;;;4988550;28;20191;-58
2023/12/07 03:01:06;;;;;;;25.47;13.23;;;0.90;99.90;;;;;;4986998;28;20280;-58
2023/12/07 03:03:32;;;;;;;25.93;13.70;;;0.90;99.90;;;;;;4982128;28;20193;-58
2023/12/07 03:05:57;;;;;;;24.90;13.00;;;0.90;99.90;;;;;;4985649;28;20236;-58
2023/12/07 03:08:23;;;;;;;29.67;14.70;;;0.90;99.90;;;;;;4987258;28;20702;-58
2023/12/07 03:10:48;;;;;;;28.10;14.03;;;0.90;99.90;;;;;;4989169;28;20187;-57
2023/12/07 03:13:14;;;;;;;24.97;13.63;;;0.90;99.90;;;;;;4984662;28;20719;-58
2023/12/07 03:15:39;;;;;;;29.57;14.70;;;0.80;99.90;;;;;;4985993;28;20183;-58
2023/12/07 03:18:05;;;;;;;31.93;15.07;;;0.80;99.90;;;;;;4988838;28;20837;-58
2023/12/07 03:20:31;;;;;;;31.50;15.57;;;0.80;99.90;;;;;;4985458;28;20298;-58
2023/12/07 03:22:57;;;;;;;26.60;14.83;;;0.80;99.90;;;;;;4988255;28;20210;-58
2023/12/07 03:25:22;;;;;;;30.60;15.90;;;0.80;99.90;;;;;;4986266;28;20431;-58
2023/12/07 03:27:48;;;;;;;31.57;15.20;;;0.80;99.90;;;;;;4986915;28;20517;-58
2023/12/07 03:30:13;;;;;;;29.93;15.80;;;0.80;99.90;;;;;;4988741;28;20550;-58
2023/12/07 03:32:39;;;;;;;32.00;15.00;;;0.90;99.90;;;;;;4985374;28;20212;-58
2023/12/07 03:35:05;;;;;;;34.07;15.53;;;0.80;99.90;;;;;;4986821;28;20191;-58
2023/12/07 03:37:31;;;;;;;36.87;17.20;;;0.80;99.90;;;;;;4986356;28;20715;-59
2023/12/07 03:39:56;;;;;;;59.93;24.07;;;0.80;99.90;;;;;;4986385;28;20415;-58
2023/12/07 03:42:22;;;;;;;55.57;23.03;;;0.80;99.90;;;;;;4987016;28;20563;-58
2023/12/07 03:44:47;;;;;;;46.83;19.70;;;0.70;99.90;;;;;;4985371;28;20234;-58
2023/12/07 03:47:13;;;;;;;48.97;20.30;;;0.70;99.90;;;;;;4985836;28;20183;-58
2023/12/07 03:49:41;;;;;;;51.93;20.70;;;0.70;99.90;;;;;;4988254;28;20184;-58
2023/12/07 03:52:06;;;;;;;55.73;19.70;;;0.70;99.90;;;;;;4981157;28;20207;-58
2023/12/07 03:54:32;;;;;;;48.20;20.40;;;0.70;99.90;;;;;;4983328;28;20926;-58
2023/12/07 03:56:58;;;;;;;55.50;20.60;;;0.70;99.90;;;;;;4988121;28;20203;-58
2023/12/07 03:59:23;;;;;;;55.53;20.77;;;0.70;99.90;;;;;;4981970;28;20181;-59
2023/12/07 04:01:49;;;;;;;48.93;20.27;;;0.70;99.90;;;;;;4984240;28;20241;-58
2023/12/07 04:04:15;;;;;;;59.37;21.63;;;0.70;99.90;;;;;;4986274;28;20196;-59
2023/12/07 04:06:40;;;;;;;55.60;22.80;;;0.70;99.90;;;;;;4985037;28;20238;-58
2023/12/07 04:09:06;;;;;;;50.77;21.10;;;0.70;99.90;;;;;;4982545;28;20286;-58
2023/12/07 04:11:31;;;;;;;55.27;22.53;;;0.70;99.90;;;;;;4987128;28;20210;-58
2023/12/07 04:13:57;;;;;;;53.30;21.30;;;0.60;99.90;;;;;;4987460;28;20203;-58
2023/12/07 04:16:23;;;;;;;48.90;19.57;;;0.60;99.90;;;;;;4981681;28;20888;-58
2023/12/07 04:18:49;;;;;;;50.80;20.60;;;0.70;99.90;;;;;;4987506;28;20181;-58
2023/12/07 04:21:14;;;;;;;51.70;19.97;;;0.70;99.90;;;;;;4982411;28;20180;-58
2023/12/07 04:23:40;;;;;;;51.53;21.23;;;0.60;99.90;;;;;;4987526;28;20588;-57
2023/12/07 04:26:05;;;;;;;53.33;20.33;;;0.60;99.90;;;;;;4983389;28;20199;-58
2023/12/07 04:28:31;;;;;;;49.13;19.83;;;0.60;99.90;;;;;;4986025;28;20264;-56
2023/12/07 04:30:56;;;;;;;55.77;20.70;;;0.60;99.90;;;;;;4983392;28;20179;-58
2023/12/07 04:33:22;;;;;;;47.73;20.27;;;0.60;99.90;;;;;;4988371;28;20766;-57
2023/12/07 04:35:48;;;;;;;48.70;18.53;;;0.60;99.90;;;;;;4984399;28;20184;-58
2023/12/07 04:38:13;;;;;;;43.40;17.07;;;0.60;99.90;;;;;;4982948;28;20242;-58
2023/12/07 04:40:39;;;;;;;51.00;19.53;;;0.60;99.90;;;;;;4982053;28;20226;-58
2023/12/07 04:43:04;;;;;;;145.43;20.40;;;0.60;99.90;;;;;;4984349;28;20274;-58
2023/12/07 04:45:30;;;;;;;125.30;19.93;;;0.60;99.90;;;;;;4987474;28;20846;-58
2023/12/07 04:47:57;;;;;;;88.30;20.43;;;0.60;99.90;;;;;;4978110;28;20190;-57
2023/12/07 04:50:23;;;;;;;65.70;18.47;;;0.50;99.90;;;;;;4986126;28;20179;-59
2023/12/07 04:52:49;;;;;;;127.30;20.00;;;0.50;99.90;;;;;;4980925;28;20542;-58
2023/12/07 04:55:15;;;;;;;52.57;16.90;;;0.50;99.90;;;;;;4982881;28;20415;-57
2023/12/07 04:57:41;;;;;;;34.23;14.97;;;0.40;99.90;;;;;;4986659;28;20179;-58
2023/12/07 05:00:09;;;;;;;58.53;16.43;;;0.40;99.90;;;;;;4987107;28;20434;-58
2023/12/07 05:02:34;;;;;;;41.73;14.90;;;0.30;99.90;;;;;;4980407;28;20180;-58
2023/12/07 05:05:00;;;;;;;41.70;13.63;;;0.30;99.90;;;;;;4971001;28;20451;-54
2023/12/07 05:07:26;;;;;;;93.87;16.60;;;0.40;99.90;;;;;;4987645;28;20187;-56
2023/12/07 05:09:52;;;;;;;153.17;16.10;;;0.40;99.90;;;;;;4982675;28;20187;-55
2023/12/07 05:12:17;;;;;;;82.90;15.27;;;0.40;99.90;;;;;;4979297;28;20832;-55
2023/12/07 05:14:43;;;;;;;39.70;14.73;;;0.40;99.90;;;;;;4989260;28;20326;-58
2023/12/07 05:17:09;;;;;;;46.67;13.37;;;0.30;99.90;;;;;;4988564;28;20233;-57
2023/12/07 05:19:34;;;;;;;31.57;13.30;;;0.30;99.90;;;;;;4989097;28;20185;-58
2023/12/07 05:22:00;;;;;;;59.83;15.30;;;0.30;99.90;;;;;;4987782;28;20191;-57
2023/12/07 05:24:26;;;;;;;33.47;12.50;;;0.30;99.90;;;;;;4981119;28;20227;-58
2023/12/07 05:26:51;;;;;;;45.13;14.50;;;0.30;99.90;;;;;;4989594;28;20262;-58
2023/12/07 05:29:17;;;;;;;161.03;17.67;;;0.20;99.90;;;;;;4985681;28;20305;-58
2023/12/07 05:31:43;;;;;;;129.70;14.43;;;0.20;99.90;;;;;;4981196;28;20249;-58
2023/12/07 05:34:08;;;;;;;56.47;14.53;;;0.10;99.90;;;;;;4984443;28;20225;-58
2023/12/07 05:36:34;;;;;;;37.70;12.43;;;0.10;99.90;;;;;;4983342;28;20264;-58
2023/12/07 05:38:59;;;;;;;36.07;13.03;;;0.10;99.90;;;;;;4983463;28;20172;-57
2023/12/07 05:41:25;;;;;;;57.10;11.87;;;0.10;99.90;;;;;;4976085;28;20180;-57
2023/12/07 05:43:52;;;;;;;35.77;12.23;;;0.00;99.90;;;;;;4982438;28;20225;-58
2023/12/07 05:46:18;;;;;;;40.93;12.60;;;0.00;99.90;;;;;;4986525;28;20690;-55
2023/12/07 05:48:44;;;;;;;27.83;12.50;;;0.00;99.90;;;;;;4987141;28;20466;-57
2023/12/07 05:51:17;;;;;;;36.37;12.13;;;-0.10;99.90;;;;;;4983455;28;20535;-58
2023/12/07 05:53:43;;;;;;;31.40;12.03;;;-0.10;99.90;;;;;;4986394;28;20195;-57
2023/12/07 05:56:10;;;;;;;74.30;11.93;;;-0.10;99.90;;;;;;4983924;28;20448;-59
2023/12/07 05:58:35;;;;;;;43.67;11.17;;;-0.20;99.90;;;;;;4988075;28;20438;-57
2023/12/07 06:01:02;;;;;;;34.97;11.00;;;-0.20;99.90;;;;;;4986597;28;20935;-58
2023/12/07 06:03:32;;;;;;;49.27;12.10;;;-0.20;99.90;;;;;;4988323;28;20203;-58
2023/12/07 06:05:57;;;;;;;43.47;12.17;;;-0.20;99.90;;;;;;4982424;28;20439;-57
2023/12/07 06:08:23;;;;;;;36.87;13.27;;;-0.20;99.90;;;;;;4984034;28;21164;-58
2023/12/07 06:10:49;;;;;;;58.67;13.87;;;-0.20;99.90;;;;;;4987848;28;20183;-57
2023/12/07 06:13:14;;;;;;;59.33;15.60;;;-0.20;99.90;;;;;;4986132;28;20294;-57
2023/12/07 06:15:40;;;;;;;40.60;15.30;;;-0.20;99.90;;;;;;4986395;28;20222;-57
2023/12/07 06:18:06;;;;;;;49.47;14.80;;;-0.20;99.90;;;;;;4984487;28;20180;-57
2023/12/07 06:20:32;;;;;;;43.00;13.90;;;-0.20;99.90;;;;;;4986268;28;20422;-57
2023/12/07 06:22:58;;;;;;;80.23;14.60;;;-0.20;99.90;;;;;;4983158;28;20960;-57
2023/12/07 06:25:24;;;;;;;47.80;12.80;;;-0.20;99.90;;;;;;4982770;28;20187;-57
2023/12/07 06:27:49;;;;;;;61.60;11.83;;;-0.20;99.90;;;;;;4989579;28;20299;-57
2023/12/07 06:30:15;;;;;;;48.77;12.57;;;-0.20;99.90;;;;;;4986465;28;20471;-56
2023/12/07 06:32:41;;;;;;;44.93;13.40;;;-0.30;99.90;;;;;;4984972;28;20593;-58
2023/12/07 06:35:07;;;;;;;49.33;14.90;;;-0.30;99.90;;;;;;4989762;28;20318;-58
2023/12/07 06:37:33;;;;;;;67.90;13.43;;;-0.40;99.90;;;;;;4987465;28;20184;-56
2023/12/07 06:40:00;;;;;;;36.47;11.30;;;-0.40;99.90;;;;;;4989543;28;20956;-58
2023/12/07 06:42:28;;;;;;;25.50;10.60;;;-0.40;99.90;;;;;;4989588;28;20418;-58
2023/12/07 06:44:54;;;;;;;21.40;8.77;;;-0.40;99.90;;;;;;4982512;28;20465;-58
2023/12/07 06:47:19;;;;;;;33.50;11.10;;;-0.50;99.90;;;;;;4990470;28;21923;-58
2023/12/07 06:49:48;;;;;;;28.57;11.00;;;-0.40;99.90;;;;;;4987998;28;20329;-58
2023/12/07 06:52:13;;;;;;;19.90;9.60;;;-0.50;99.90;;;;;;4989526;28;20199;-58
2023/12/07 06:54:39;;;;;;;59.90;10.97;;;-0.50;99.90;;;;;;4983502;28;20458;-58
2023/12/07 06:57:08;;;;;;;74.70;11.60;;;-0.50;99.90;;;;;;4986111;28;20183;-58
2023/12/07 06:59:33;;;;;;;103.77;13.33;;;-0.50;99.90;;;;;;4988828;28;20640;-57
2023/12/07 07:02:00;;;;;;;27.50;10.73;;;-0.60;99.90;;;;;;4987184;28;20488;-59
2023/12/07 07:04:26;;;;;;;24.23;10.43;;;-0.60;99.90;;;;;;4982020;28;20207;-59
2023/12/07 07:06:51;;;;;;;112.93;13.13;;;-0.60;99.90;;;;;;4982412;28;20435;-59
2023/12/07 07:09:17;;;;;;;57.00;11.63;;;-0.60;99.90;;;;;;4985605;28;20184;-57
2023/12/07 07:11:48;;;;;;;44.77;11.20;;;-0.60;99.90;;;;;;4983972;28;20195;-59
2023/12/07 07:14:14;;;;;;;52.90;11.43;;;-0.60;99.90;;;;;;4987670;28;20457;-59
2023/12/07 07:16:39;;;;;;;55.33;12.27;;;-0.70;99.90;;;;;;4989862;28;20418;-59
2023/12/07 07:19:05;;;;;;;68.80;11.83;;;-0.60;99.90;;;;;;4986837;28;20179;-59
2023/12/07 07:21:31;;;;;;;67.27;11.10;;;-0.60;99.90;;;;;;4986904;28;20211;-58
2023/12/07 07:23:57;;;;;;;35.67;10.87;;;-0.60;99.90;;;;;;4989662;28;20434;-58
2023/12/07 07:26:24;;;;;;;63.17;12.60;;;-0.60;99.90;;;;;;4988451;28;20202;-59
2023/12/07 07:28:51;;;;;;;45.30;13.20;;;-0.70;99.90;;;;;;4986023;28;20226;-59
2023/12/07 07:31:17;;;;;;;61.10;12.43;;;-0.70;99.90;;;;;;4987733;28;20469;-58
2023/12/07 07:33:43;;;;;;;34.60;10.50;;;-0.70;99.90;;;;;;4986842;28;20462;-59
2023/12/07 07:36:11;;;;;;;38.43;10.03;;;-0.80;99.90;;;;;;4988170;28;20429;-59
2023/12/07 07:38:37;;;;;;;27.23;10.40;;;-0.80;99.90;;;;;;4985618;28;20458;-59
2023/12/07 07:41:02;;;;;;;40.33;11.40;;;-0.80;99.90;;;;;;4988621;28;20446;-58
2023/12/07 07:43:28;;;;;;;31.33;12.03;;;-0.70;99.90;;;;;;4988772;28;20437;-59
2023/12/07 07:45:53;;;;;;;26.67;10.00;;;-0.70;99.90;;;;;;4986039;28;20650;-58
2023/12/07 07:48:19;;;;;;;76.50;11.47;;;-0.70;99.90;;;;;;4980285;28;20187;-59
2023/12/07 07:50:45;;;;;;;49.37;11.30;;;-0.70;99.90;;;;;;4986328;28;20191;-59
2023/12/07 07:53:10;;;;;;;42.80;11.90;;;-0.70;99.90;;;;;;4985062;28;20215;-58
2023/12/07 07:55:36;;;;;;;87.17;13.33;;;-0.70;99.90;;;;;;4987831;28;20179;-58
2023/12/07 07:58:02;;;;;;;38.40;13.97;;;-0.80;99.90;;;;;;4983844;28;20643;-56
2023/12/07 08:00:28;;;;;;;21.90;8.93;;;-0.80;99.90;;;;;;4987951;28;20174;-59
2023/12/07 08:02:54;;;;;;;22.17;8.97;;;-0.80;99.90;;;;;;4985443;28;20815;-59
2023/12/07 08:05:19;;;;;;;26.90;10.97;;;-0.80;99.90;;;;;;4987594;28;20190;-58
2023/12/07 08:07:45;;;;;;;25.63;9.17;;;-0.80;99.90;;;;;;4988516;28;20184;-59
2023/12/07 08:10:10;;;;;;;17.80;8.77;;;-0.80;99.90;;;;;;4986005;28;20191;-57
2023/12/07 08:12:39;;;;;;;17.13;8.90;;;-0.80;99.90;;;;;;4984768;28;20195;-59
2023/12/07 08:15:05;;;;;;;22.13;9.33;;;-0.70;99.90;;;;;;4988750;28;20173;-58
2023/12/07 08:17:30;;;;;;;27.50;11.20;;;-0.70;99.90;;;;;;4982511;28;20449;-59
2023/12/07 08:19:59;;;;;;;26.47;12.07;;;-0.70;99.90;;;;;;4980504;28;20553;-58
2023/12/07 08:22:24;;;;;;;31.00;11.87;;;-0.70;99.90;;;;;;4984801;28;20659;-60
2023/12/07 08:24:50;;;;;;;28.80;11.67;;;-0.60;99.90;;;;;;4980670;28;20585;-58
2023/12/07 08:27:15;;;;;;;33.27;13.17;;;-0.60;99.90;;;;;;4988407;28;20185;-58
2023/12/07 08:29:41;;;;;;;39.73;12.97;;;-0.60;99.90;;;;;;4983215;28;20275;-58
2023/12/07 08:32:06;;;;;;;30.43;12.20;;;-0.60;99.90;;;;;;4978424;28;20593;-59
2023/12/07 08:34:32;;;;;;;30.60;12.97;;;-0.50;99.90;;;;;;4986917;28;20210;-58
2023/12/07 08:36:58;;;;;;;37.07;13.37;;;-0.50;99.90;;;;;;4988733;28;20166;-58
2023/12/07 08:39:25;;;;;;;30.80;10.80;;;-0.40;99.90;;;;;;4983149;28;20338;-59
2023/12/07 08:41:51;;;;;;;17.20;8.90;;;-0.40;99.90;;;;;;4987916;28;20209;-58
2023/12/07 08:44:17;;;;;;;16.53;8.30;;;-0.40;99.90;;;;;;4985270;28;20461;-58
2023/12/07 08:46:44;;;;;;;19.23;8.53;;;-0.40;99.90;;;;;;4984131;28;20485;-59
2023/12/07 08:49:10;;;;;;;19.67;9.47;;;-0.40;99.90;;;;;;4983923;28;20197;-58
2023/12/07 08:51:36;;;;;;;17.93;8.37;;;-0.40;99.90;;;;;;4987285;28;20976;-59
2023/12/07 08:54:02;;;;;;;16.40;9.10;;;-0.50;99.90;;;;;;4987486;28;20442;-56
2023/12/07 08:56:27;;;;;;;17.87;8.40;;;-0.40;99.90;;;;;;4991383;28;20180;-57
2023/12/07 08:58:53;;;;;;;20.20;9.20;;;-0.40;99.90;;;;;;4983575;28;20341;-58
2023/12/07 09:01:18;;;;;;;20.20;9.77;;;-0.40;99.90;;;;;;4984266;28;20192;-59
2023/12/07 09:03:44;;;;;;;19.57;9.60;;;-0.40;99.90;;;;;;4987237;28;20199;-58
2023/12/07 09:06:10;;;;;;;19.03;9.00;;;-0.40;99.90;;;;;;4986773;28;20192;-58
2023/12/07 09:08:35;;;;;;;17.83;9.23;;;-0.40;99.90;;;;;;4988119;28;20577;-59
2023/12/07 09:11:01;;;;;;;25.63;9.67;;;-0.40;99.90;;;;;;4987871;28;20229;-58
2023/12/07 09:13:27;;;;;;;25.60;10.13;;;-0.30;99.90;;;;;;4983569;28;20219;-58
2023/12/07 09:15:53;;;;;;;14.77;8.70;;;-0.30;99.90;;;;;;4988272;28;20184;-59
2023/12/07 09:18:19;;;;;;;17.97;9.20;;;-0.30;99.90;;;;;;4986512;28;20445;-60
2023/12/07 09:20:47;;;;;;;20.97;9.43;;;-0.20;99.90;;;;;;4983207;28;21252;-60
2023/12/07 09:23:14;;;;;;;19.50;10.67;;;-0.20;99.90;;;;;;4985600;28;20226;-60
2023/12/07 09:25:40;;;;;;;17.53;9.80;;;-0.20;99.90;;;;;;4987149;28;20500;-59
2023/12/07 09:28:06;;;;;;;20.43;9.60;;;-0.10;99.90;;;;;;4981499;28;20473;-56
2023/12/07 09:30:33;;;;;;;18.97;10.10;;;-0.10;99.90;;;;;;4982682;28;20183;-56
2023/12/07 09:32:59;;;;;;;21.07;10.53;;;-0.10;99.90;;;;;;4987712;28;20287;-56
2023/12/07 09:35:25;;;;;;;19.07;8.90;;;-0.10;99.90;;;;;;4983933;28;20949;-57
2023/12/07 09:37:51;;;;;;;18.13;9.63;;;-0.10;99.90;;;;;;4988141;28;20420;-57
2023/12/07 09:40:18;;;;;;;27.30;10.10;;;-0.10;99.90;;;;;;4986278;28;20678;-57
2023/12/07 09:42:44;;;;;;;27.00;11.83;;;-0.10;99.90;;;;;;4987094;28;20410;-57
2023/12/07 09:45:10;;;;;;;19.50;9.40;;;0.00;99.90;;;;;;4986138;28;20427;-57
2023/12/07 09:47:38;;;;;;;30.43;11.00;;;0.00;99.90;;;;;;4985684;28;20430;-56
2023/12/07 09:50:16;;;;;;;21.80;10.60;;;0.00;99.90;;;;;;4987156;28;20458;-57
2023/12/07 09:52:42;;;;;;;29.60;11.50;;;0.10;99.90;;;;;;4985148;28;21005;-57
2023/12/07 09:55:09;;;;;;;36.70;14.30;;;0.20;99.90;;;;;;4980588;28;20798;-58
2023/12/07 09:57:36;;;;;;;38.00;13.27;;;0.20;99.90;;;;;;4987136;28;20419;-57
2023/12/07 10:00:02;;;;;;;33.43;14.10;;;0.30;99.90;;;;;;4987115;28;20804;-56
2023/12/07 10:02:28;;;;;;;46.57;14.53;;;0.30;99.90;;;;;;4986665;28;20436;-58
2023/12/07 10:05:09;;;;;;;26.17;12.17;;;0.40;99.90;;;;;;4990487;28;20508;-57
2023/12/07 10:07:37;;;;;;;28.13;12.43;;;0.40;99.90;;;;;;4991169;28;20415;-57
2023/12/07 10:10:04;;;;;;;30.33;12.87;;;0.40;99.90;;;;;;4989540;28;20430;-55
2023/12/07 10:12:34;;;;;;;26.80;12.33;;;0.40;99.90;;;;;;4985683;28;20470;-57
2023/12/07 10:15:03;;;;;;;31.77;13.17;;;0.40;99.90;;;;;;4980123;28;20434;-55
2023/12/07 10:17:49;;;;;;;35.87;13.80;;;0.30;99.90;;;;;;4981828;28;20431;-57
2023/12/07 10:20:19;;;;;;;45.37;16.40;;;0.30;99.90;;;;;;4979211;28;20462;-56
2023/12/07 10:22:46;;;;;;;34.50;10.30;;;0.30;99.90;;;;;;4972041;28;20606;-56
2023/12/07 10:25:12;;;;;;;40.23;13.03;;;0.40;99.90;;;;;;4982594;28;20536;-57
2023/12/07 10:27:40;;;;;;;44.77;17.80;;;0.40;99.90;;;;;;4980362;28;21360;-57
2023/12/07 10:30:08;;;;;;;47.90;17.60;;;0.40;99.90;;;;;;4984707;28;20453;-58
2023/12/07 10:32:38;;;;;;;51.70;17.17;;;0.40;99.90;;;;;;4982833;28;20935;-57
2023/12/07 10:35:06;;;;;;;98.83;16.37;;;0.40;99.90;;;;;;4984576;28;20406;-56
2023/12/07 10:37:32;;;;;;;29.83;12.00;;;0.50;99.90;;;;;;4983059;28;20415;-56
2023/12/07 10:39:58;;;;;;;129.20;13.80;;;0.50;99.90;;;;;;4980049;28;20445;-56
2023/12/07 10:42:25;;;;;;;56.17;13.37;;;0.50;99.90;;;;;;4983601;28;20551;-57
2023/12/07 10:44:57;;;;;;;35.67;11.00;;;0.60;99.90;;;;;;4984055;28;20287;-57
2023/12/07 10:47:23;;;;;;;64.03;9.80;;;0.60;99.90;;;;;;4980310;28;20426;-57
2023/12/07 10:49:54;;;;;;;36.03;8.60;;;0.60;99.90;;;;;;4976257;28;20427;-57
2023/12/07 10:52:24;;;;;;;21.67;10.00;;;0.60;99.90;;;;;;4975235;28;20494;-56
2023/12/07 10:55:11;;;;;;;20.07;9.53;;;0.60;99.90;;;;;;4979005;28;20569;-57
2023/12/07 10:57:37;;;;;;;25.30;10.80;;;0.70;99.90;;;;;;4980837;28;20464;-58
2023/12/07 11:00:03;;;;;;;23.77;9.97;;;0.70;99.90;;;;;;4979322;28;20420;-56
2023/12/07 11:02:30;;;;;;;27.23;9.20;;;0.70;99.90;;;;;;4980377;28;20525;-58
2023/12/07 11:04:57;;;;;;;18.90;8.83;;;0.70;99.90;;;;;;4981998;28;20502;-57
2023/12/07 11:07:25;;;;;;;20.33;9.40;;;0.70;99.90;;;;;;4979619;28;20442;-56
2023/12/07 11:10:05;;;;;;;34.23;9.97;;;0.70;99.90;;;;;;4981204;28;20492;-56
2023/12/07 11:12:46;;;;;;;18.93;9.70;;;0.80;99.90;;;;;;4980118;28;20499;-56
2023/12/07 11:15:12;;;;;;;15.90;8.13;;;0.70;99.90;;;;;;4976970;28;20435;-57
2023/12/07 11:17:54;;;;;;;15.07;8.27;;;0.80;99.90;;;;;;4978673;28;21033;-58
2023/12/07 11:20:33;;;;;;;19.37;8.53;;;0.90;99.90;;;;;;4979256;28;20433;-56
2023/12/07 11:22:59;;;;;;;23.00;11.07;;;1.00;99.90;;;;;;4980941;28;20472;-58
2023/12/07 11:25:25;;;;;;;22.17;10.40;;;1.10;99.90;;;;;;4983427;28;20422;-57
2023/12/07 11:28:01;;;;;;;21.00;10.90;;;1.20;99.90;;;;;;4984076;28;20948;-57
2023/12/07 11:30:30;;;;;;;22.93;10.60;;;1.30;99.90;;;;;;4980110;28;20201;-57
2023/12/07 11:32:55;;;;;;;15.77;9.40;;;1.30;99.90;;;;;;4979658;28;20874;-57
2023/12/07 11:35:21;;;;;;;19.20;10.43;;;1.40;99.90;;;;;;4981307;28;20430;-58
2023/12/07 11:38:11;;;;;;;22.10;10.10;;;1.40;99.90;;;;;;4982385;28;20190;-57
2023/12/07 11:40:43;;;;;;;19.53;10.60;;;1.40;99.90;;;;;;4980198;28;20195;-59
2023/12/07 11:43:32;;;;;;;19.37;10.33;;;1.50;99.90;;;;;;4977756;28;20528;-57
2023/12/07 11:45:58;;;;;;;16.83;9.30;;;1.50;99.90;;;;;;4977576;28;20407;-59
2023/12/07 11:48:24;;;;;;;15.90;8.17;;;1.40;99.90;;;;;;4978296;28;21028;-58
2023/12/07 11:51:05;;;;;;;11.67;7.70;;;1.40;99.90;;;;;;4976241;28;20439;-57
2023/12/07 11:53:33;;;;;;;14.70;7.90;;;1.40;99.90;;;;;;4982597;28;20466;-57
2023/12/07 11:55:59;;;;;;;14.20;8.73;;;1.30;99.90;;;;;;4975529;28;20428;-59
2023/12/07 11:58:30;;;;;;;14.30;7.60;;;1.30;99.90;;;;;;4977573;28;20420;-58
2023/12/07 12:00:56;;;;;;;15.20;8.13;;;1.30;99.90;;;;;;4975410;28;20448;-57
2023/12/07 12:03:22;;;;;;;14.70;8.27;;;1.30;99.90;;;;;;4981879;28;20454;-58
2023/12/07 12:05:48;;;;;;;15.47;7.87;;;1.30;99.90;;;;;;4981746;28;20447;-58
2023/12/07 12:08:16;;;;;;;16.03;8.30;;;1.30;99.90;;;;;;4978922;28;20434;-58
2023/12/07 12:10:44;;;;;;;15.40;9.33;;;1.40;99.90;;;;;;4980928;28;20764;-59
2023/12/07 12:13:10;;;;;;;18.20;9.57;;;1.40;99.90;;;;;;4978469;28;20470;-58
2023/12/07 12:15:37;;;;;;;15.87;9.67;;;1.50;99.90;;;;;;4982834;28;20496;-58
2023/12/07 12:18:03;;;;;;;19.27;10.50;;;1.50;99.90;;;;;;4980848;28;20432;-56
2023/12/07 12:20:28;;;;;;;18.53;10.90;;;1.60;99.90;;;;;;4978939;28;20477;-58
2023/12/07 12:22:54;;;;;;;16.67;9.00;;;1.60;99.90;;;;;;4980257;28;20295;-58
2023/12/07 12:25:30;;;;;;;19.00;10.30;;;1.60;99.90;;;;;;4979170;28;20615;-57
2023/12/07 12:28:03;;;;;;;19.63;9.90;;;1.70;99.90;;;;;;4976531;28;20504;-58
2023/12/07 12:30:30;;;;;;;19.87;9.07;;;1.70;99.90;;;;;;4977719;28;20424;-57
2023/12/07 12:32:56;;;;;;;14.03;8.60;;;1.80;99.90;;;;;;4982319;28;20452;-57